createdAt,value
2023-05-12T00:00:49.438Z,100230.52
2023-05-12T00:03:16.676Z,100229.57
2023-05-12T00:05:44.345Z,100226.95
2023-05-12T00:08:11.488Z,100229.00
2023-05-12T00:10:38.646Z,100227.01
2023-05-12T00:13:06.002Z,100226.30
2023-05-12T00:15:33.147Z,100225.29
2023-05-12T00:18:00.319Z,100224.80
2023-05-12T00:20:27.453Z,100225.52
2023-05-12T00:22:54.598Z,100225.52
2023-05-12T00:25:21.755Z,100226.22
2023-05-12T00:27:48.829Z,100221.70
2023-05-12T00:30:16.483Z,100222.76
2023-05-12T00:32:43.674Z,100224.58
2023-05-12T00:35:10.878Z,100225.11
2023-05-12T00:37:38.239Z,100228.14
2023-05-12T00:40:06.138Z,100228.39
2023-05-12T00:42:35.216Z,100227.55
2023-05-12T00:45:03.007Z,100231.20
2023-05-12T00:47:30.683Z,100228.08
2023-05-12T00:49:57.890Z,100231.23
2023-05-12T00:52:25.451Z,100228.74
2023-05-12T00:54:52.729Z,100238.28
2023-05-12T00:57:21.055Z,100231.00
2023-05-12T00:59:48.440Z,100231.55
2023-05-12T01:02:16.144Z,100234.36
2023-05-12T01:04:43.668Z,100232.62
2023-05-12T01:07:15.230Z,100235.55
2023-05-12T01:09:42.478Z,100234.49
2023-05-12T01:12:10.144Z,100238.56
2023-05-12T01:14:37.913Z,100237.06
2023-05-12T01:17:09.102Z,100239.52
2023-05-12T01:19:55.253Z,100236.90
2023-05-12T01:22:22.638Z,100242.20
2023-05-12T01:24:58.314Z,100237.39
2023-05-12T01:27:27.771Z,100234.27
2023-05-12T01:29:58.408Z,100237.40
2023-05-12T01:32:26.688Z,100240.98
2023-05-12T01:34:54.033Z,100241.89
2023-05-12T01:37:21.601Z,100242.73
2023-05-12T01:39:48.763Z,100241.27
2023-05-12T01:42:19.686Z,100241.52
2023-05-12T01:44:47.451Z,100242.99
2023-05-12T01:47:16.168Z,100242.20
2023-05-12T01:49:49.231Z,100242.96
2023-05-12T01:52:16.889Z,100238.41
2023-05-12T01:54:44.047Z,100239.04
2023-05-12T01:57:12.222Z,100242.59
2023-05-12T01:59:39.575Z,100237.17
2023-05-12T02:02:07.566Z,100238.98
2023-05-12T02:04:34.899Z,100242.99
2023-05-12T02:07:02.256Z,100238.58
2023-05-12T02:09:29.614Z,100237.83
2023-05-12T02:12:00.248Z,100243.02
2023-05-12T02:14:27.605Z,100242.17
2023-05-12T02:16:55.696Z,100244.39
2023-05-12T02:19:24.056Z,100244.55
2023-05-12T02:21:51.221Z,100243.67
2023-05-12T02:24:18.364Z,100244.73
2023-05-12T02:26:45.719Z,100243.95
2023-05-12T02:29:13.687Z,100242.07
2023-05-12T02:31:41.334Z,100243.34
2023-05-12T02:34:15.985Z,100248.27
2023-05-12T02:36:43.131Z,100244.40
2023-05-12T02:39:10.893Z,100245.14
2023-05-12T02:41:38.966Z,100243.34
2023-05-12T02:44:06.121Z,100245.31
2023-05-12T02:46:33.271Z,100245.41
2023-05-12T02:49:00.428Z,100247.61
2023-05-12T02:51:27.586Z,100243.10
2023-05-12T02:53:54.728Z,100244.45
2023-05-12T02:56:22.577Z,100247.27
2023-05-12T02:58:49.849Z,100252.20
2023-05-12T03:01:17.065Z,100249.56
2023-05-12T03:03:44.522Z,100254.66
2023-05-12T03:06:12.126Z,100258.25
2023-05-12T03:08:39.380Z,100256.29
2023-05-12T03:11:06.733Z,100256.65
2023-05-12T03:13:34.002Z,100260.97
2023-05-12T03:16:01.949Z,100261.65
2023-05-12T03:18:29.778Z,100264.64
2023-05-12T03:20:57.798Z,100264.20
2023-05-12T03:23:25.168Z,100269.11
2023-05-12T03:25:52.305Z,100270.29
2023-05-12T03:28:19.455Z,100271.53
2023-05-12T03:30:46.612Z,100274.79
2023-05-12T03:33:13.769Z,100268.89
2023-05-12T03:35:41.028Z,100277.59
2023-05-12T03:38:08.112Z,100276.57
2023-05-12T03:40:35.229Z,100277.89
2023-05-12T03:43:03.084Z,100273.30
2023-05-12T03:45:30.240Z,100272.06
2023-05-12T03:47:57.417Z,100270.11
2023-05-12T03:50:24.543Z,100273.44
2023-05-12T03:52:56.227Z,100271.91
2023-05-12T03:55:23.456Z,100274.34
2023-05-12T03:57:50.608Z,100272.23
2023-05-12T04:00:18.807Z,100274.30
2023-05-12T04:02:46.719Z,100276.27
2023-05-12T04:05:14.310Z,100275.18
2023-05-12T04:07:41.799Z,100269.05
2023-05-12T04:10:09.333Z,100271.77
2023-05-12T04:12:36.483Z,100272.30
2023-05-12T04:15:05.190Z,100271.18
2023-05-12T04:17:32.340Z,100275.79
2023-05-12T04:19:59.574Z,100282.46
2023-05-12T04:22:27.140Z,100283.00
2023-05-12T04:24:54.603Z,100280.66
2023-05-12T04:27:22.063Z,100280.58
2023-05-12T04:29:49.225Z,100281.73
2023-05-12T04:32:16.380Z,100287.20
2023-05-12T04:34:43.733Z,100289.73
2023-05-12T04:37:11.089Z,100289.02
2023-05-12T04:39:38.251Z,100290.87
2023-05-12T04:42:06.069Z,100295.45
2023-05-12T04:44:34.499Z,100294.59
2023-05-12T04:47:01.639Z,100294.52
2023-05-12T04:49:30.532Z,100293.06
2023-05-12T04:51:57.802Z,100294.33
2023-05-12T04:54:25.045Z,100296.97
2023-05-12T04:56:52.608Z,100297.23
2023-05-12T04:59:19.989Z,100294.89
2023-05-12T05:01:49.396Z,100290.60
2023-05-12T05:04:17.150Z,100292.65
2023-05-12T05:06:44.292Z,100296.83
2023-05-12T05:09:11.855Z,100295.13
2023-05-12T05:11:40.745Z,100295.55
2023-05-12T05:14:08.015Z,100292.05
2023-05-12T05:16:36.177Z,100293.13
2023-05-12T05:19:06.355Z,100294.23
2023-05-12T05:21:35.010Z,100296.88
2023-05-12T05:24:02.128Z,100298.77
2023-05-12T05:26:29.290Z,100298.14
2023-05-12T05:28:56.546Z,100296.17
2023-05-12T05:31:25.534Z,100294.04
2023-05-12T05:33:52.732Z,100295.14
2023-05-12T05:36:20.558Z,100293.61
2023-05-12T05:38:48.525Z,100298.92
2023-05-12T05:41:15.684Z,100297.35
2023-05-12T05:43:42.810Z,100295.70
2023-05-12T05:46:10.405Z,100300.33
2023-05-12T05:48:38.877Z,100296.84
2023-05-12T05:51:06.952Z,100296.65
2023-05-12T05:53:34.203Z,100297.44
2023-05-12T05:56:01.779Z,100297.23
2023-05-12T05:58:29.243Z,100293.70
2023-05-12T06:00:56.373Z,100294.14
2023-05-12T06:03:23.925Z,100293.97
2023-05-12T06:05:51.494Z,100295.79
2023-05-12T06:08:19.100Z,100295.87
2023-05-12T06:10:46.321Z,100295.54
2023-05-12T06:13:13.459Z,100295.05
2023-05-12T06:15:40.610Z,100293.86
2023-05-12T06:18:07.978Z,100292.50
2023-05-12T06:20:35.218Z,100296.12
2023-05-12T06:23:02.369Z,100292.96
2023-05-12T06:25:29.588Z,100296.96
2023-05-12T06:27:56.780Z,100292.96
2023-05-12T06:30:24.336Z,100295.83
2023-05-12T06:32:55.156Z,100295.31
2023-05-12T06:35:22.739Z,100299.34
2023-05-12T06:37:51.317Z,100300.13
2023-05-12T06:40:18.778Z,100299.08
2023-05-12T06:42:45.927Z,100300.08
2023-05-12T06:45:17.499Z,100293.40
2023-05-12T06:47:44.874Z,100298.59
2023-05-12T06:50:12.099Z,100297.70
2023-05-12T06:52:39.454Z,100299.98
2023-05-12T06:55:07.313Z,100295.45
2023-05-12T06:57:35.190Z,100295.05
2023-05-12T07:00:03.673Z,100295.92
2023-05-12T07:02:31.234Z,100294.92
2023-05-12T07:04:58.592Z,100293.95
2023-05-12T07:07:25.746Z,100292.27
2023-05-12T07:09:52.893Z,100291.40
2023-05-12T07:12:20.045Z,100294.44
2023-05-12T07:14:48.827Z,100292.96
2023-05-12T07:17:15.982Z,100292.55
2023-05-12T07:19:43.946Z,100296.02
2023-05-12T07:22:11.406Z,100297.94
2023-05-12T07:24:38.968Z,100294.61
2023-05-12T07:27:06.538Z,100297.30
2023-05-12T07:29:33.679Z,100301.55
2023-05-12T07:32:00.829Z,100301.96
2023-05-12T07:34:27.981Z,100303.63
2023-05-12T07:36:55.134Z,100296.75
2023-05-12T07:39:24.064Z,100296.06
2023-05-12T07:41:53.126Z,100289.73
2023-05-12T07:44:20.190Z,100290.64
2023-05-12T07:46:47.562Z,100284.13
2023-05-12T07:49:14.702Z,100286.42
2023-05-12T07:51:41.833Z,100287.77
2023-05-12T07:54:08.986Z,100291.20
2023-05-12T07:56:36.142Z,100293.65
2023-05-12T07:59:03.600Z,100287.68
2023-05-12T08:01:32.036Z,100282.87
2023-05-12T08:03:59.570Z,100280.34
2023-05-12T08:06:26.794Z,100278.90
2023-05-12T08:08:54.152Z,100278.75
2023-05-12T08:11:21.303Z,100271.73
2023-05-12T08:13:48.455Z,100284.89
2023-05-12T08:16:15.655Z,100287.84
2023-05-12T08:18:42.881Z,100282.73
2023-05-12T08:21:10.128Z,100281.55
2023-05-12T08:23:40.283Z,100283.98
2023-05-12T08:26:07.380Z,100282.25
2023-05-12T08:28:34.637Z,100280.98
2023-05-12T08:31:04.847Z,100283.80
2023-05-12T08:33:32.224Z,100283.54
2023-05-12T08:35:59.372Z,100283.11
2023-05-12T08:38:26.522Z,100281.81
2023-05-12T08:41:13.859Z,100277.02
2023-05-12T08:43:45.811Z,100276.81
2023-05-12T08:46:13.556Z,100273.21
2023-05-12T08:48:41.550Z,100274.66
2023-05-12T08:51:13.534Z,100269.58
2023-05-12T08:53:41.888Z,100266.00
2023-05-12T08:58:42.414Z,100263.33
2023-05-12T09:01:10.460Z,100264.33
2023-05-12T09:03:39.319Z,100256.09
2023-05-12T09:06:06.964Z,100254.89
2023-05-12T09:08:35.446Z,100256.63
2023-05-12T09:11:02.824Z,100251.66
2023-05-12T09:13:46.540Z,100256.59
2023-05-12T09:16:14.092Z,100257.15
2023-05-12T09:18:49.317Z,100251.89
2023-05-12T09:21:16.502Z,100254.80
2023-05-12T09:24:00.863Z,100248.33
2023-05-12T09:26:28.688Z,100248.17
2023-05-12T09:29:06.746Z,100257.70
2023-05-12T09:31:34.270Z,100251.67
2023-05-12T09:34:02.676Z,100255.20
2023-05-12T09:36:29.823Z,100253.82
2023-05-12T09:39:04.645Z,100249.87
2023-05-12T09:41:35.290Z,100248.91
2023-05-12T09:44:02.749Z,100250.09
2023-05-12T09:46:30.385Z,100245.43
2023-05-12T09:48:59.516Z,100240.43
2023-05-12T09:51:27.281Z,100232.27
2023-05-12T09:53:54.529Z,100232.30
2023-05-12T09:56:22.235Z,100223.25
2023-05-12T09:58:49.855Z,100225.77
2023-05-12T10:01:23.425Z,100220.52
2023-05-12T10:03:56.146Z,100218.08
2023-05-12T10:06:34.391Z,100223.70
2023-05-12T10:09:19.734Z,100224.70
2023-05-12T10:11:47.901Z,100221.23
2023-05-12T10:14:15.060Z,100221.66
2023-05-12T10:16:42.249Z,100222.44
2023-05-12T10:19:11.644Z,100220.66
2023-05-12T10:21:38.757Z,100224.70
2023-05-12T10:24:06.417Z,100222.77
2023-05-12T10:26:35.318Z,100221.92
2023-05-12T10:29:02.667Z,100212.89
2023-05-12T10:31:29.902Z,100210.39
2023-05-12T10:34:01.113Z,100205.73
2023-05-12T10:36:29.344Z,100202.55
2023-05-12T10:38:56.831Z,100202.48
2023-05-12T10:41:31.999Z,100202.83
2023-05-12T10:43:59.301Z,100197.08
2023-05-12T10:46:30.651Z,100196.98
2023-05-12T10:49:09.081Z,100198.76
2023-05-12T10:51:45.458Z,100196.85
2023-05-12T10:54:18.525Z,100197.38
2023-05-12T10:56:46.243Z,100193.16
2023-05-12T10:59:24.461Z,100196.48
2023-05-12T11:02:03.908Z,100194.78
2023-05-12T11:04:42.073Z,100197.41
2023-05-12T11:07:11.803Z,100196.70
2023-05-12T11:09:52.400Z,100196.10
2023-05-12T11:12:26.946Z,100196.48
2023-05-12T11:14:54.122Z,100193.61
2023-05-12T11:17:21.362Z,100195.69
2023-05-12T11:19:49.739Z,100190.36
2023-05-12T11:22:18.600Z,100189.55
2023-05-12T11:26:40.787Z,100188.83
2023-05-12T11:29:07.937Z,100183.00
2023-05-12T11:31:35.141Z,100183.54
2023-05-12T11:34:12.538Z,100180.15
2023-05-12T11:36:42.806Z,100182.23
2023-05-12T11:39:17.044Z,100172.96
2023-05-12T11:41:45.012Z,100171.90
2023-05-12T11:44:16.038Z,100168.45
2023-05-12T11:47:02.642Z,100167.98
2023-05-12T11:49:31.144Z,100161.41
2023-05-12T11:52:00.219Z,100161.79
2023-05-12T11:54:31.061Z,100157.66
2023-05-12T11:56:58.328Z,100158.09
2023-05-12T11:59:33.266Z,100152.10
2023-05-12T12:02:01.989Z,100160.16
2023-05-12T12:04:40.502Z,100157.66
2023-05-12T12:07:08.534Z,100158.21
2023-05-12T12:09:43.365Z,100155.70
2023-05-12T12:12:11.641Z,100153.26
2023-05-12T12:14:39.101Z,100154.77
2023-05-12T12:17:06.255Z,100147.81
2023-05-12T12:19:33.713Z,100149.33
2023-05-12T12:22:00.864Z,100154.63
2023-05-12T12:24:28.026Z,100153.45
2023-05-12T12:26:55.165Z,100152.66
2023-05-12T12:29:24.162Z,100143.97
2023-05-12T12:31:51.498Z,100142.23
2023-05-12T12:34:19.490Z,100134.88
2023-05-12T12:36:48.175Z,100134.58
2023-05-12T12:39:16.778Z,100133.31
2023-05-12T12:41:48.334Z,100135.02
2023-05-12T12:44:16.095Z,100134.42
2023-05-12T12:46:43.419Z,100130.52
2023-05-12T12:49:10.701Z,100125.89
2023-05-12T12:51:45.654Z,100127.21
2023-05-12T12:54:15.248Z,100126.09
2023-05-12T12:56:44.458Z,100120.09
2023-05-12T12:59:12.214Z,100113.94
2023-05-12T13:01:39.354Z,100113.05
2023-05-12T13:04:06.509Z,100114.84
2023-05-12T13:06:33.662Z,100112.23
2023-05-12T13:09:01.830Z,100116.59
2023-05-12T13:11:29.201Z,100117.98
2023-05-12T13:13:56.348Z,100118.06
2023-05-12T13:16:23.523Z,100119.55
2023-05-12T13:18:51.110Z,100119.25
2023-05-12T13:21:19.043Z,100122.98
2023-05-12T13:23:46.191Z,100124.59
2023-05-12T13:26:14.071Z,100123.30
2023-05-12T13:28:41.295Z,100123.94
2023-05-12T13:31:08.535Z,100121.63
2023-05-12T13:33:35.705Z,100113.23
2023-05-12T13:36:02.857Z,100112.11
2023-05-12T13:38:31.038Z,100108.09
2023-05-12T13:40:58.180Z,100106.77
2023-05-12T13:43:25.444Z,100103.77
2023-05-12T13:45:52.632Z,100098.45
2023-05-12T13:48:19.976Z,100100.27
2023-05-12T13:50:47.400Z,100096.17
2023-05-12T13:53:14.552Z,100095.09
2023-05-12T13:55:41.912Z,100092.70
2023-05-12T13:58:09.064Z,100090.91
2023-05-12T14:00:36.211Z,100092.04
2023-05-12T14:03:03.394Z,100087.84
2023-05-12T14:05:30.756Z,100088.67
2023-05-12T14:07:58.082Z,100086.05
2023-05-12T14:10:25.229Z,100085.06
2023-05-12T14:12:52.380Z,100085.58
2023-05-12T14:15:32.510Z,100083.30
2023-05-12T14:18:03.604Z,100083.39
2023-05-12T14:20:30.835Z,100084.84
2023-05-12T14:22:58.189Z,100086.50
2023-05-12T14:25:25.661Z,100086.20
2023-05-12T14:27:52.826Z,100086.21
2023-05-12T14:30:22.094Z,100090.16
2023-05-12T14:32:50.008Z,100093.41
2023-05-12T14:35:17.270Z,100096.30
2023-05-12T14:37:44.372Z,100086.77
2023-05-12T14:40:12.506Z,100088.34
2023-05-12T14:42:40.020Z,100092.48
2023-05-12T14:45:08.281Z,100089.73
2023-05-12T14:47:35.677Z,100088.86
2023-05-12T14:50:03.121Z,100092.23
2023-05-12T14:52:31.389Z,100084.11
2023-05-12T14:54:58.547Z,100095.11
2023-05-12T14:57:25.797Z,100090.27
2023-05-12T14:59:56.637Z,100090.39
2023-05-12T15:02:23.851Z,100089.41
2023-05-12T15:04:51.046Z,100089.79
2023-05-12T15:07:18.189Z,100089.94
2023-05-12T15:09:45.247Z,100086.83
2023-05-12T15:12:12.408Z,100083.39
2023-05-12T15:14:39.547Z,100081.41
2023-05-12T15:17:06.747Z,100083.20
2023-05-12T15:19:33.952Z,100084.55
2023-05-12T15:22:01.206Z,100084.39
2023-05-12T15:24:29.075Z,100085.64
2023-05-12T15:26:56.338Z,100080.59
2023-05-12T15:29:24.096Z,100078.51
2023-05-12T15:31:51.605Z,100079.36
2023-05-12T15:34:18.815Z,100077.98
2023-05-12T15:36:48.996Z,100081.92
2023-05-12T15:39:19.520Z,100080.46
2023-05-12T15:41:47.741Z,100076.81
2023-05-12T15:44:15.299Z,100079.56
2023-05-12T15:46:43.018Z,100078.44
2023-05-12T15:49:10.526Z,100077.38
2023-05-12T15:51:37.790Z,100075.94
2023-05-12T15:54:07.145Z,100084.88
2023-05-12T15:56:36.701Z,100083.95
2023-05-12T15:59:05.479Z,100083.20
2023-05-12T16:01:32.779Z,100084.79
2023-05-12T16:04:00.269Z,100084.21
2023-05-12T16:06:27.563Z,100081.64
2023-05-12T16:08:54.700Z,100084.48
2023-05-12T16:11:21.851Z,100082.06
2023-05-12T16:13:49.006Z,100085.35
2023-05-12T16:16:16.175Z,100085.15
2023-05-12T16:18:43.861Z,100087.51
2023-05-12T16:21:13.015Z,100087.12
2023-05-12T16:23:40.277Z,100083.03
2023-05-12T16:26:07.524Z,100084.66
2023-05-12T16:28:34.985Z,100084.97
2023-05-12T16:31:02.956Z,100084.55
2023-05-12T16:33:30.111Z,100089.84
2023-05-12T16:35:57.773Z,100087.02
2023-05-12T16:38:24.924Z,100089.44
2023-05-12T16:40:52.296Z,100091.71
2023-05-12T16:43:19.540Z,100091.79
2023-05-12T16:45:46.803Z,100092.59
2023-05-12T16:48:14.054Z,100096.05
2023-05-12T16:50:41.195Z,100099.89
2023-05-12T16:53:08.348Z,100101.70
2023-05-12T16:55:35.510Z,100107.30
2023-05-12T16:58:03.163Z,100112.08
2023-05-12T17:00:30.319Z,100111.48
2023-05-12T17:02:57.529Z,100115.98
2023-05-12T17:05:25.077Z,100116.34
2023-05-12T17:07:52.593Z,100120.09
2023-05-12T17:10:19.759Z,100119.39
2023-05-12T17:12:47.001Z,100120.01
2023-05-12T17:15:14.153Z,100124.42
2023-05-12T17:17:41.316Z,100127.39
2023-05-12T17:20:09.373Z,100133.75
2023-05-12T17:22:41.668Z,100130.66
2023-05-12T17:25:09.427Z,100131.27
2023-05-12T17:27:36.815Z,100134.79
2023-05-12T17:30:04.882Z,100134.20
2023-05-12T17:32:32.233Z,100134.33
2023-05-12T17:34:59.460Z,100134.17
2023-05-12T17:37:26.623Z,100135.27
2023-05-12T17:39:54.069Z,100135.20
2023-05-12T17:42:21.545Z,100139.66
2023-05-12T17:44:48.693Z,100138.22
2023-05-12T17:47:16.182Z,100141.59
2023-05-12T17:49:43.809Z,100139.60
2023-05-12T17:52:10.966Z,100142.08
2023-05-12T17:54:38.123Z,100147.02
2023-05-12T17:57:05.984Z,100149.09
2023-05-12T17:59:33.080Z,100153.03
2023-05-12T18:02:00.441Z,100154.45
2023-05-12T18:04:27.655Z,100158.46
2023-05-12T18:06:55.311Z,100160.75
2023-05-12T18:09:23.798Z,100160.99
2023-05-12T18:11:51.152Z,100159.21
2023-05-12T18:14:18.305Z,100162.52
2023-05-12T18:16:45.491Z,100163.30
2023-05-12T18:19:12.820Z,100168.92
2023-05-12T18:21:39.969Z,100167.92
2023-05-12T18:24:07.532Z,100169.48
2023-05-12T18:26:34.686Z,100172.98
2023-05-12T18:29:01.906Z,100176.04
2023-05-12T18:31:29.509Z,100179.71
2023-05-12T18:33:56.853Z,100182.43
2023-05-12T18:36:24.001Z,100181.48
2023-05-12T18:38:51.259Z,100180.29
2023-05-12T18:41:18.413Z,100180.95
2023-05-12T18:43:46.382Z,100181.71
2023-05-12T18:46:13.765Z,100184.88
2023-05-12T18:48:41.202Z,100175.21
2023-05-12T18:51:08.366Z,100182.73
2023-05-12T18:53:35.507Z,100181.93
2023-05-12T18:56:02.659Z,100182.98
2023-05-12T18:58:32.375Z,100185.39
2023-05-12T19:00:59.525Z,100181.02
2023-05-12T19:03:26.683Z,100183.50
2023-05-12T19:05:53.963Z,100181.08
2023-05-12T19:08:21.501Z,100183.25
2023-05-12T19:10:48.767Z,100183.91
2023-05-12T19:13:16.113Z,100188.35
2023-05-12T19:15:43.291Z,100184.84
2023-05-12T19:18:10.417Z,100185.92
2023-05-12T19:20:37.891Z,100184.89
2023-05-12T19:23:05.032Z,100185.07
2023-05-12T19:25:32.192Z,100185.66
2023-05-12T19:27:59.341Z,100188.35
2023-05-12T19:30:27.824Z,100186.73
2023-05-12T19:32:55.006Z,100184.96
2023-05-12T19:35:22.998Z,100183.83
2023-05-12T19:37:50.409Z,100182.56
2023-05-12T19:40:17.563Z,100180.59
2023-05-12T19:42:44.927Z,100179.95
2023-05-12T19:45:12.481Z,100182.69
2023-05-12T19:47:39.780Z,100177.30
2023-05-12T19:50:08.135Z,100181.24
2023-05-12T19:52:35.584Z,100184.13
2023-05-12T19:55:02.731Z,100186.48
2023-05-12T19:57:29.887Z,100187.13
2023-05-12T19:59:57.051Z,100181.84
2023-05-12T20:02:31.014Z,100182.03
2023-05-12T20:05:01.490Z,100176.77
2023-05-12T20:07:28.745Z,100175.55
2023-05-12T20:09:56.008Z,100172.83
2023-05-12T20:12:23.149Z,100175.69
2023-05-12T20:14:50.300Z,100171.55
2023-05-12T20:17:18.072Z,100173.64
2023-05-12T20:19:45.348Z,100174.98
2023-05-12T20:22:13.089Z,100177.31
2023-05-12T20:24:40.250Z,100174.42
2023-05-12T20:27:08.318Z,100176.59
2023-05-12T20:29:35.681Z,100180.32
2023-05-12T20:32:02.930Z,100179.51
2023-05-12T20:34:30.081Z,100180.35
2023-05-12T20:36:57.749Z,100181.60
2023-05-12T20:39:24.907Z,100183.78
2023-05-12T20:41:52.061Z,100182.96
2023-05-12T20:44:20.336Z,100183.80
2023-05-12T20:46:48.319Z,100185.17
2023-05-12T20:49:15.560Z,100186.39
2023-05-12T20:51:42.718Z,100186.84
2023-05-12T20:54:09.868Z,100187.05
2023-05-12T20:56:37.019Z,100186.48
2023-05-12T20:59:04.180Z,100188.55
2023-05-12T21:01:31.395Z,100186.09
2023-05-12T21:03:58.613Z,100186.98
2023-05-12T21:06:26.037Z,100184.89
2023-05-12T21:08:53.297Z,100186.54
2023-05-12T21:11:21.269Z,100189.20
2023-05-12T21:13:48.466Z,100188.94
2023-05-12T21:16:16.769Z,100186.87
2023-05-12T21:18:44.418Z,100185.11
2023-05-12T21:21:11.535Z,100186.16
2023-05-12T21:23:38.775Z,100184.47
2023-05-12T21:26:06.247Z,100182.66
2023-05-12T21:28:33.381Z,100183.10
2023-05-12T21:31:00.474Z,100185.41
2023-05-12T21:33:28.100Z,100187.94
2023-05-12T21:35:55.456Z,100189.35
2023-05-12T21:38:22.609Z,100190.80
2023-05-12T21:40:52.705Z,100189.16
2023-05-12T21:43:19.885Z,100193.40
2023-05-12T21:45:47.068Z,100190.98
2023-05-12T21:48:14.392Z,100192.14
2023-05-12T21:50:41.553Z,100195.92
2023-05-12T21:53:08.697Z,100194.33
2023-05-12T21:55:35.862Z,100193.14
2023-05-12T21:58:03.007Z,100194.17
2023-05-12T22:00:30.166Z,100193.48
2023-05-12T22:02:57.374Z,100196.34
2023-05-12T22:05:24.671Z,100193.21
2023-05-12T22:07:51.826Z,100193.58
2023-05-12T22:10:19.200Z,100195.46
2023-05-12T22:12:46.952Z,100193.73
2023-05-12T22:15:14.106Z,100195.05
2023-05-12T22:17:41.315Z,100194.07
2023-05-12T22:20:09.534Z,100194.67
2023-05-12T22:22:37.000Z,100194.08
2023-05-12T22:25:04.952Z,100193.27
2023-05-12T22:27:32.126Z,100197.38
2023-05-12T22:29:59.273Z,100200.35
2023-05-12T22:32:26.545Z,100199.22
2023-05-12T22:34:54.197Z,100200.99
2023-05-12T22:37:22.477Z,100204.41
2023-05-12T22:39:49.626Z,100201.24
2023-05-12T22:42:16.783Z,100189.18
2023-05-12T22:44:43.934Z,100201.64
2023-05-12T22:47:11.434Z,100197.60
2023-05-12T22:49:38.858Z,100200.30
2023-05-12T22:52:06.705Z,100200.60
2023-05-12T22:54:33.880Z,100202.04
2023-05-12T22:57:01.024Z,100202.48
2023-05-12T22:59:28.175Z,100201.71
2023-05-12T23:01:55.328Z,100203.35
2023-05-12T23:04:22.526Z,100199.30
2023-05-12T23:06:49.752Z,100200.63
2023-05-12T23:09:16.898Z,100198.12
2023-05-12T23:11:44.042Z,100198.48
2023-05-12T23:14:11.804Z,100199.29
2023-05-12T23:16:38.987Z,100196.33
2023-05-12T23:19:06.230Z,100196.34
2023-05-12T23:21:33.668Z,100196.79
2023-05-12T23:24:01.130Z,100197.82
2023-05-12T23:26:28.283Z,100199.33
2023-05-12T23:28:55.450Z,100197.55
2023-05-12T23:31:22.599Z,100198.59
2023-05-12T23:33:50.068Z,100204.70
2023-05-12T23:36:17.303Z,100205.77
2023-05-12T23:38:44.761Z,100204.88
2023-05-12T23:44:01.700Z,100205.27
2023-05-12T23:46:28.927Z,100202.13
2023-05-12T23:48:56.822Z,100202.11
2023-05-12T23:51:24.314Z,100207.20
2023-05-12T23:53:51.942Z,100208.94
2023-05-12T23:56:19.092Z,100210.60
2023-05-12T23:58:47.784Z,100214.71
